createdAt,value
2022-12-31T00:02:11.329Z,98.70
2022-12-31T00:04:42.704Z,98.60
2022-12-31T00:07:16.830Z,98.50
2022-12-31T00:09:48.416Z,98.40
2022-12-31T00:12:19.774Z,98.40
2022-12-31T00:14:51.381Z,98.40
2022-12-31T00:17:23.869Z,98.30
2022-12-31T00:19:55.269Z,98.30
2022-12-31T00:22:29.525Z,98.20
2022-12-31T00:25:00.825Z,98.20
2022-12-31T00:27:34.249Z,98.30
2022-12-31T00:30:05.583Z,98.60
2022-12-31T00:32:36.730Z,98.90
2022-12-31T00:35:07.794Z,99.20
2022-12-31T00:37:41.712Z,99.30
2022-12-31T00:40:14.788Z,99.10
2022-12-31T00:42:46.199Z,99.20
2022-12-31T00:45:16.877Z,99.20
2022-12-31T00:47:48.145Z,99.40
2022-12-31T00:50:19.050Z,99.30
2022-12-31T00:52:52.774Z,99.50
2022-12-31T00:55:24.405Z,99.20
2022-12-31T00:57:55.954Z,99.20
2022-12-31T01:00:26.928Z,99.30
2022-12-31T01:02:58.202Z,99.20
2022-12-31T01:05:29.770Z,99.30
2022-12-31T01:08:03.629Z,99.20
2022-12-31T01:10:46.800Z,99.30
2022-12-31T01:13:18.378Z,99.40
2022-12-31T01:15:50.496Z,99.40
2022-12-31T01:18:21.996Z,99.30
2022-12-31T01:20:53.202Z,99.30
2022-12-31T01:23:27.104Z,99.30
2022-12-31T01:25:57.831Z,99.30
2022-12-31T01:28:29.038Z,99.30
2022-12-31T01:30:59.964Z,99.30
2022-12-31T01:33:31.622Z,99.40
2022-12-31T01:36:06.212Z,99.30
2022-12-31T01:38:40.663Z,99.30
2022-12-31T01:41:14.281Z,99.30
2022-12-31T01:43:51.580Z,99.30
2022-12-31T01:46:29.128Z,99.20
2022-12-31T01:49:03.523Z,99.20
2022-12-31T01:51:37.591Z,99.20
2022-12-31T01:54:13.672Z,99.10
2022-12-31T01:56:46.693Z,99.10
2022-12-31T01:59:21.099Z,99.10
2022-12-31T02:01:55.712Z,99.00
2022-12-31T02:04:29.563Z,98.90
2022-12-31T02:07:04.511Z,98.90
2022-12-31T02:09:41.556Z,98.80
2022-12-31T02:12:13.718Z,98.80
2022-12-31T02:14:48.106Z,98.70
2022-12-31T02:17:28.679Z,98.60
2022-12-31T02:20:20.974Z,98.60
2022-12-31T02:23:14.855Z,98.60
2022-12-31T02:26:22.138Z,98.50
2022-12-31T02:29:16.531Z,98.60
2022-12-31T02:31:55.227Z,98.50
2022-12-31T02:34:32.831Z,98.40
2022-12-31T02:37:06.919Z,98.40
2022-12-31T02:39:38.780Z,98.40
2022-12-31T02:42:10.715Z,98.30
2022-12-31T02:44:43.334Z,98.30
2022-12-31T02:47:29.471Z,98.20
2022-12-31T02:50:11.699Z,98.20
2022-12-31T02:52:50.320Z,98.20
2022-12-31T02:55:28.989Z,98.10
2022-12-31T02:58:11.175Z,98.20
2022-12-31T03:01:00.611Z,98.10
2022-12-31T03:03:36.002Z,98.00
2022-12-31T03:06:07.906Z,98.10
2022-12-31T03:08:59.404Z,98.10
2022-12-31T03:11:42.803Z,98.00
2022-12-31T03:14:14.036Z,98.00
2022-12-31T03:16:45.635Z,98.00
2022-12-31T03:19:31.895Z,98.00
2022-12-31T03:22:16.665Z,98.00
2022-12-31T03:25:00.538Z,98.10
2022-12-31T03:27:31.348Z,98.00
2022-12-31T03:30:02.801Z,98.00
2022-12-31T03:32:33.973Z,98.00
2022-12-31T03:35:08.408Z,98.00
2022-12-31T03:37:39.379Z,98.00
2022-12-31T03:40:14.422Z,98.00
2022-12-31T03:42:45.685Z,98.00
2022-12-31T03:45:18.497Z,98.00
2022-12-31T03:47:49.488Z,98.10
2022-12-31T03:50:24.099Z,98.00
2022-12-31T03:52:55.574Z,98.10
2022-12-31T03:55:27.537Z,98.10
2022-12-31T03:57:58.571Z,98.10
2022-12-31T04:00:29.733Z,98.20
2022-12-31T04:03:00.658Z,98.10
2022-12-31T04:05:34.875Z,98.10
2022-12-31T04:08:06.019Z,98.10
2022-12-31T04:10:37.141Z,98.10
2022-12-31T04:13:08.844Z,98.10
2022-12-31T04:15:40.598Z,98.00
2022-12-31T04:18:11.969Z,98.10
2022-12-31T04:20:45.814Z,98.10
2022-12-31T04:23:16.894Z,98.10
2022-12-31T04:25:48.241Z,98.10
2022-12-31T04:28:19.016Z,98.10
2022-12-31T04:30:50.559Z,98.10
2022-12-31T04:33:22.099Z,98.10
2022-12-31T04:35:55.933Z,98.10
2022-12-31T04:38:27.074Z,98.20
2022-12-31T04:41:10.594Z,98.20
2022-12-31T04:43:41.396Z,98.20
2022-12-31T04:46:13.038Z,98.20
2022-12-31T04:48:44.111Z,98.20
2022-12-31T04:51:18.324Z,98.20
2022-12-31T04:53:49.181Z,98.20
2022-12-31T04:56:21.445Z,98.10
2022-12-31T04:58:52.432Z,98.20
2022-12-31T05:01:24.788Z,98.10
2022-12-31T05:03:55.732Z,98.10
2022-12-31T05:06:29.653Z,98.10
2022-12-31T05:09:01.912Z,98.10
2022-12-31T05:11:33.086Z,98.10
2022-12-31T05:14:04.190Z,98.10
2022-12-31T05:16:35.630Z,98.10
2022-12-31T05:19:09.710Z,98.00
2022-12-31T05:21:43.651Z,98.00
2022-12-31T05:24:14.562Z,98.00
2022-12-31T05:26:46.036Z,98.00
2022-12-31T05:29:16.828Z,98.00
2022-12-31T05:31:48.343Z,98.00
2022-12-31T05:34:19.070Z,98.00
2022-12-31T05:36:52.825Z,98.00
2022-12-31T05:39:23.610Z,98.00
2022-12-31T05:41:55.821Z,98.00
2022-12-31T05:44:27.117Z,97.90
2022-12-31T05:46:58.290Z,98.00
2022-12-31T05:49:29.072Z,98.00
2022-12-31T05:52:03.110Z,98.00
2022-12-31T05:54:33.917Z,98.00
2022-12-31T05:57:05.085Z,98.00
2022-12-31T05:59:36.620Z,98.30
2022-12-31T06:02:08.213Z,97.90
2022-12-31T06:04:39.497Z,98.00
2022-12-31T06:07:13.591Z,98.00
2022-12-31T06:09:44.449Z,98.00
2022-12-31T06:12:17.337Z,97.90
2022-12-31T06:14:48.827Z,98.00
2022-12-31T06:17:20.843Z,98.00
2022-12-31T06:19:51.746Z,98.00
2022-12-31T06:22:25.489Z,98.10
2022-12-31T06:24:56.528Z,98.00
2022-12-31T06:27:27.675Z,98.10
2022-12-31T06:29:58.948Z,98.10
2022-12-31T06:32:30.501Z,98.10
2022-12-31T06:35:01.260Z,98.10
2022-12-31T06:37:35.083Z,98.10
2022-12-31T06:40:07.516Z,98.10
2022-12-31T06:42:38.757Z,98.20
2022-12-31T06:45:10.039Z,98.10
2022-12-31T06:47:41.179Z,98.20
2022-12-31T06:50:12.799Z,98.30
2022-12-31T06:52:47.060Z,98.30
2022-12-31T06:55:19.745Z,98.30
2022-12-31T06:57:51.900Z,98.30
2022-12-31T07:00:24.789Z,98.30
2022-12-31T07:03:10.370Z,98.40
2022-12-31T07:05:49.417Z,98.80
2022-12-31T07:08:36.627Z,98.50
2022-12-31T07:11:15.311Z,98.80
2022-12-31T07:14:02.031Z,98.60
2022-12-31T07:16:42.537Z,98.70
2022-12-31T07:19:22.576Z,98.70
2022-12-31T07:21:56.404Z,99.00
2022-12-31T07:24:32.086Z,98.90
2022-12-31T07:27:21.712Z,98.90
2022-12-31T07:30:06.430Z,99.00
2022-12-31T07:32:50.987Z,99.00
2022-12-31T07:35:34.807Z,99.00
2022-12-31T07:38:15.706Z,99.00
2022-12-31T07:41:02.676Z,99.00
2022-12-31T07:43:44.860Z,99.10
2022-12-31T07:46:21.918Z,99.30
2022-12-31T07:48:53.642Z,99.50
2022-12-31T07:51:25.620Z,99.80
2022-12-31T07:53:57.088Z,99.90
2022-12-31T07:56:32.386Z,99.90
2022-12-31T07:59:11.323Z,99.90
2022-12-31T08:01:50.271Z,99.90
2022-12-31T08:04:28.302Z,99.90
2022-12-31T08:07:09.238Z,99.90
2022-12-31T08:09:49.820Z,99.90
2022-12-31T08:12:24.402Z,99.90
2022-12-31T08:14:55.618Z,99.90
2022-12-31T08:17:28.293Z,99.90
2022-12-31T08:19:59.967Z,99.90
2022-12-31T08:22:59.040Z,99.90
2022-12-31T08:25:38.400Z,99.90
2022-12-31T08:28:22.316Z,99.90
2022-12-31T08:31:01.276Z,99.90
2022-12-31T08:33:38.722Z,99.90
2022-12-31T08:36:22.133Z,99.90
2022-12-31T08:38:59.884Z,99.90
2022-12-31T08:41:42.335Z,99.90
2022-12-31T08:44:28.703Z,99.90
2022-12-31T08:47:09.172Z,99.90
2022-12-31T08:49:42.540Z,99.90
2022-12-31T08:52:21.882Z,99.90
2022-12-31T08:54:53.734Z,99.90
2022-12-31T08:57:34.388Z,99.90
2022-12-31T09:00:12.962Z,99.90
2022-12-31T09:02:58.955Z,99.90
2022-12-31T09:05:36.176Z,99.90
2022-12-31T09:08:16.629Z,99.90
2022-12-31T09:10:54.690Z,99.90
2022-12-31T09:13:33.989Z,99.90
2022-12-31T09:16:16.704Z,99.90
2022-12-31T09:18:48.656Z,99.90
2022-12-31T09:21:20.467Z,99.90
2022-12-31T09:23:51.894Z,99.90
2022-12-31T09:26:42.253Z,99.90
2022-12-31T09:29:19.739Z,99.90
2022-12-31T09:32:01.208Z,99.90
2022-12-31T09:34:38.938Z,99.90
2022-12-31T09:37:19.263Z,99.90
2022-12-31T09:39:52.053Z,99.90
2022-12-31T09:42:56.025Z,99.90
2022-12-31T09:46:06.111Z,99.90
2022-12-31T09:49:13.269Z,99.90
2022-12-31T09:51:53.899Z,99.90
2022-12-31T09:54:47.904Z,99.90
2022-12-31T09:57:35.086Z,99.90
2022-12-31T10:00:12.608Z,99.90
2022-12-31T10:03:06.540Z,99.90
2022-12-31T10:05:59.898Z,99.90
2022-12-31T10:08:48.126Z,99.90
2022-12-31T10:11:27.456Z,99.90
2022-12-31T10:14:11.074Z,99.90
2022-12-31T10:17:02.243Z,99.90
2022-12-31T10:20:01.210Z,99.90
2022-12-31T10:22:50.701Z,99.90
2022-12-31T10:25:38.058Z,99.90
2022-12-31T10:28:21.493Z,99.90
2022-12-31T10:31:06.416Z,99.80
2022-12-31T10:33:46.590Z,99.70
2022-12-31T10:36:24.003Z,99.70
2022-12-31T10:39:15.230Z,99.60
2022-12-31T10:42:15.876Z,99.60
2022-12-31T10:45:18.607Z,99.50
2022-12-31T10:48:34.647Z,99.40
2022-12-31T10:51:38.134Z,99.40
2022-12-31T10:54:43.888Z,99.40
2022-12-31T10:57:44.746Z,99.40
2022-12-31T11:00:19.234Z,99.30
2022-12-31T11:03:35.075Z,99.30
2022-12-31T11:06:42.102Z,99.20
2022-12-31T11:10:04.818Z,99.20
2022-12-31T11:12:59.808Z,99.20
2022-12-31T11:15:55.442Z,99.20
2022-12-31T11:18:34.300Z,99.00
2022-12-31T11:21:28.437Z,99.10
2022-12-31T11:24:09.050Z,99.00
2022-12-31T11:26:56.610Z,99.00
2022-12-31T11:29:38.629Z,98.90
2022-12-31T11:32:26.902Z,98.90
2022-12-31T11:35:21.020Z,98.80
2022-12-31T11:37:54.648Z,98.90
2022-12-31T11:40:40.054Z,98.70
2022-12-31T11:43:25.327Z,98.80
2022-12-31T11:46:19.934Z,98.80
2022-12-31T11:49:05.008Z,98.70
2022-12-31T11:51:52.167Z,98.60
2022-12-31T11:54:48.946Z,98.60
2022-12-31T11:57:27.533Z,98.40
2022-12-31T12:00:03.851Z,98.50
2022-12-31T12:02:47.317Z,98.50
2022-12-31T12:05:21.528Z,98.40
2022-12-31T12:07:53.624Z,98.40
2022-12-31T12:10:36.253Z,98.30
2022-12-31T12:13:22.311Z,98.30
2022-12-31T12:16:00.040Z,98.30
2022-12-31T12:18:37.092Z,98.30
2022-12-31T12:21:13.205Z,98.20
2022-12-31T12:23:44.374Z,98.20
2022-12-31T12:26:31.691Z,98.20
2022-12-31T12:29:11.431Z,98.40
2022-12-31T12:31:45.731Z,98.20
2022-12-31T12:34:26.303Z,98.20
2022-12-31T12:36:57.838Z,98.20
2022-12-31T12:39:30.638Z,98.10
2022-12-31T12:42:07.011Z,98.20
2022-12-31T12:44:38.704Z,98.10
2022-12-31T12:47:18.298Z,98.20
2022-12-31T12:49:51.731Z,98.20
2022-12-31T12:52:48.569Z,98.20
2022-12-31T12:55:25.992Z,98.20
2022-12-31T12:58:08.180Z,98.20
2022-12-31T13:00:45.957Z,98.20
2022-12-31T13:04:32.011Z,98.20
2022-12-31T13:06:56.197Z,98.20
2022-12-31T13:09:39.255Z,98.20
2022-12-31T13:12:19.325Z,98.30
2022-12-31T13:15:00.834Z,98.50
2022-12-31T13:17:56.114Z,98.60
2022-12-31T13:20:36.522Z,98.70
2022-12-31T13:23:18.608Z,98.80
2022-12-31T13:26:04.054Z,98.80
2022-12-31T13:28:39.185Z,98.90
2022-12-31T13:31:15.275Z,99.00
2022-12-31T13:33:49.869Z,99.10
2022-12-31T13:36:24.681Z,99.40
2022-12-31T13:39:01.038Z,99.60
2022-12-31T13:41:37.473Z,99.70
2022-12-31T13:44:15.239Z,99.90
2022-12-31T13:46:51.265Z,99.90
2022-12-31T13:49:27.932Z,99.90
2022-12-31T13:52:05.821Z,99.90
2022-12-31T13:54:46.234Z,99.90
2022-12-31T13:57:23.816Z,99.90
2022-12-31T14:00:02.194Z,99.90
2022-12-31T14:02:49.231Z,99.90
2022-12-31T14:05:24.896Z,99.90
2022-12-31T14:07:58.355Z,99.90
2022-12-31T14:10:48.931Z,99.90
2022-12-31T14:13:38.913Z,99.90
2022-12-31T14:16:22.047Z,99.90
2022-12-31T14:19:04.176Z,99.90
2022-12-31T14:21:40.791Z,99.90
2022-12-31T14:24:19.026Z,99.90
2022-12-31T14:26:57.280Z,99.90
2022-12-31T14:29:37.638Z,99.90
2022-12-31T14:32:21.619Z,99.90
2022-12-31T14:35:02.188Z,99.90
2022-12-31T14:37:43.568Z,99.90
2022-12-31T14:40:26.913Z,99.90
2022-12-31T14:43:14.358Z,99.90
2022-12-31T14:45:57.755Z,99.90
2022-12-31T14:48:41.447Z,99.90
2022-12-31T14:51:13.752Z,99.90
2022-12-31T14:53:56.999Z,99.90
2022-12-31T14:56:35.011Z,99.90
2022-12-31T14:59:28.691Z,99.90
2022-12-31T15:02:01.649Z,99.90
2022-12-31T15:04:37.730Z,99.90
2022-12-31T15:07:19.789Z,99.90
2022-12-31T15:10:09.438Z,99.90
2022-12-31T15:13:06.002Z,99.90
2022-12-31T15:16:01.952Z,99.90
2022-12-31T15:18:47.027Z,99.90
2022-12-31T15:21:56.097Z,99.90
2022-12-31T15:24:30.842Z,99.90
2022-12-31T15:27:04.629Z,99.90
2022-12-31T15:29:39.489Z,99.90
2022-12-31T15:32:21.855Z,99.90
2022-12-31T15:35:04.852Z,99.90
2022-12-31T15:37:39.087Z,99.90
2022-12-31T15:40:25.208Z,99.90
2022-12-31T15:43:00.858Z,99.90
2022-12-31T15:45:37.089Z,99.90
2022-12-31T15:48:18.324Z,99.90
2022-12-31T15:50:50.630Z,99.90
2022-12-31T15:53:30.227Z,99.90
2022-12-31T15:56:04.794Z,99.90
2022-12-31T15:58:39.434Z,99.90
2022-12-31T16:01:17.857Z,99.90
2022-12-31T16:03:57.604Z,99.90
2022-12-31T16:06:32.097Z,99.90
2022-12-31T16:09:02.937Z,99.90
2022-12-31T16:11:38.591Z,99.90
2022-12-31T16:14:10.882Z,99.90
2022-12-31T16:16:42.664Z,99.90
2022-12-31T16:19:31.254Z,99.90
2022-12-31T16:22:10.172Z,99.90
2022-12-31T16:25:02.773Z,99.90
2022-12-31T16:27:34.643Z,99.90
2022-12-31T16:30:08.656Z,99.90
2022-12-31T16:32:42.043Z,99.90
2022-12-31T16:35:28.114Z,99.90
2022-12-31T16:38:13.221Z,99.90
2022-12-31T16:40:46.397Z,99.90
2022-12-31T16:43:32.762Z,99.90
2022-12-31T16:46:13.197Z,99.90
2022-12-31T16:48:50.095Z,99.90
2022-12-31T16:51:25.926Z,99.90
2022-12-31T16:53:57.626Z,99.90
2022-12-31T16:56:34.818Z,99.90
2022-12-31T16:59:09.346Z,99.90
2022-12-31T17:01:44.388Z,99.90
2022-12-31T17:04:21.601Z,99.90
2022-12-31T17:06:56.064Z,99.90
2022-12-31T17:09:38.577Z,99.90
2022-12-31T17:12:19.074Z,99.90
2022-12-31T17:14:52.771Z,99.90
2022-12-31T17:17:27.487Z,99.90
2022-12-31T17:20:02.029Z,99.90
2022-12-31T17:22:38.318Z,99.90
2022-12-31T17:25:11.916Z,99.90
2022-12-31T17:27:43.620Z,99.90
2022-12-31T17:30:37.784Z,99.90
2022-12-31T17:33:31.532Z,99.90
2022-12-31T17:36:24.372Z,99.90
2022-12-31T17:38:57.749Z,99.90
2022-12-31T17:41:30.310Z,99.90
2022-12-31T17:44:02.188Z,99.90
2022-12-31T17:46:45.272Z,99.90
2022-12-31T17:49:17.039Z,99.90
2022-12-31T17:51:48.449Z,99.90
2022-12-31T17:54:23.133Z,99.90
2022-12-31T17:56:55.901Z,99.90
2022-12-31T17:59:29.923Z,99.90
2022-12-31T18:02:05.031Z,99.90
2022-12-31T18:04:36.678Z,99.90
2022-12-31T18:07:08.235Z,99.90
2022-12-31T18:09:42.443Z,99.90
2022-12-31T18:12:17.780Z,99.90
2022-12-31T18:14:49.329Z,99.90
2022-12-31T18:17:20.618Z,99.90
2022-12-31T18:20:04.814Z,99.90
2022-12-31T18:22:37.514Z,99.90
2022-12-31T18:25:16.140Z,99.90
2022-12-31T18:27:48.500Z,99.90
2022-12-31T18:30:20.978Z,99.90
2022-12-31T18:32:53.489Z,99.90
2022-12-31T18:38:18.423Z,99.90
2022-12-31T18:40:59.139Z,99.90
2022-12-31T18:43:30.856Z,99.90
2022-12-31T18:46:02.881Z,99.90
2022-12-31T18:48:34.508Z,99.90
2022-12-31T18:51:06.286Z,99.90
2022-12-31T18:53:37.682Z,99.90
2022-12-31T18:56:13.584Z,99.90
2022-12-31T18:58:45.027Z,99.90
2022-12-31T19:01:29.406Z,99.90
2022-12-31T19:04:13.446Z,99.90
2022-12-31T19:06:49.838Z,99.90
2022-12-31T19:09:44.519Z,99.90
2022-12-31T19:12:25.229Z,99.90
2022-12-31T19:14:58.850Z,99.90
2022-12-31T19:17:30.043Z,99.90
2022-12-31T19:20:06.553Z,99.90
2022-12-31T19:22:43.257Z,99.90
2022-12-31T19:25:27.280Z,99.90
2022-12-31T19:28:01.513Z,99.90
2022-12-31T19:30:42.853Z,99.90
2022-12-31T19:33:19.681Z,99.90
2022-12-31T19:35:52.856Z,99.90
2022-12-31T19:38:25.319Z,99.90
2022-12-31T19:40:57.815Z,99.90
2022-12-31T19:43:32.349Z,99.90
2022-12-31T19:46:09.906Z,99.90
2022-12-31T19:48:44.288Z,99.90
2022-12-31T19:51:22.489Z,99.90
2022-12-31T19:53:53.760Z,99.90
2022-12-31T19:56:24.921Z,99.90
2022-12-31T19:58:58.376Z,99.90
2022-12-31T20:01:29.673Z,99.90
2022-12-31T20:04:04.196Z,99.90
2022-12-31T20:06:44.287Z,99.90
2022-12-31T20:09:19.435Z,99.90
2022-12-31T20:11:52.012Z,99.90
2022-12-31T20:14:26.990Z,99.90
2022-12-31T20:17:03.729Z,99.90
2022-12-31T20:19:34.615Z,99.90
2022-12-31T20:22:06.955Z,99.90
2022-12-31T20:24:42.991Z,99.90
2022-12-31T20:27:19.672Z,99.90
2022-12-31T20:30:02.048Z,99.90
2022-12-31T20:32:34.972Z,99.90
2022-12-31T20:35:06.428Z,99.90
2022-12-31T20:37:38.391Z,99.90
2022-12-31T20:40:13.325Z,99.90
2022-12-31T20:42:49.074Z,99.90
2022-12-31T20:45:28.193Z,99.90
2022-12-31T20:47:59.232Z,99.90
2022-12-31T20:50:33.590Z,99.90
2022-12-31T20:53:08.698Z,99.90
2022-12-31T20:55:41.128Z,99.90
2022-12-31T20:58:12.488Z,99.90
2022-12-31T21:00:51.317Z,99.90
2022-12-31T21:04:03.041Z,99.90
2022-12-31T21:06:21.855Z,99.90
2022-12-31T21:08:53.485Z,99.90
2022-12-31T21:11:37.359Z,99.90
2022-12-31T21:14:09.920Z,99.90
2022-12-31T21:16:52.979Z,99.90
2022-12-31T21:19:27.244Z,99.90
2022-12-31T21:22:00.622Z,99.90
2022-12-31T21:24:33.073Z,99.90
2022-12-31T21:27:03.838Z,99.90
2022-12-31T21:29:41.893Z,99.90
2022-12-31T21:32:25.783Z,99.90
2022-12-31T21:35:31.615Z,99.90
2022-12-31T21:37:58.410Z,99.90
2022-12-31T21:40:38.301Z,99.90
2022-12-31T21:43:09.797Z,99.90
2022-12-31T21:45:45.570Z,99.90
2022-12-31T21:48:25.232Z,99.90
2022-12-31T21:50:58.237Z,99.90
2022-12-31T21:53:36.604Z,99.90
2022-12-31T21:56:11.474Z,99.90
2022-12-31T21:58:47.009Z,99.90
2022-12-31T22:01:35.673Z,99.90
2022-12-31T22:04:35.242Z,99.90
2022-12-31T22:07:04.137Z,99.90
2022-12-31T22:09:35.345Z,99.90
2022-12-31T22:12:06.684Z,99.90
2022-12-31T22:14:39.470Z,99.90
2022-12-31T22:17:30.665Z,99.90
2022-12-31T22:22:57.425Z,99.90
2022-12-31T22:25:28.311Z,99.90
2022-12-31T22:30:54.998Z,99.90
2022-12-31T22:33:26.848Z,99.90
2022-12-31T22:36:05.803Z,99.90
2022-12-31T22:38:37.454Z,99.90
2022-12-31T22:41:10.990Z,99.90
2022-12-31T22:43:46.618Z,99.90
2022-12-31T22:46:19.292Z,99.90
2022-12-31T22:48:52.901Z,99.90
2022-12-31T22:51:30.506Z,99.90
2022-12-31T22:54:18.243Z,99.90
2022-12-31T22:56:49.077Z,99.90
2022-12-31T22:59:21.710Z,99.90
2022-12-31T23:01:53.172Z,99.90
2022-12-31T23:04:25.183Z,99.90
2022-12-31T23:07:00.798Z,99.90
2022-12-31T23:09:45.168Z,99.90
2022-12-31T23:12:18.006Z,99.90
2022-12-31T23:15:01.514Z,99.90
2022-12-31T23:17:44.811Z,99.90
2022-12-31T23:20:31.324Z,99.90
2022-12-31T23:23:13.114Z,99.90
2022-12-31T23:25:50.486Z,99.90
2022-12-31T23:28:23.240Z,99.90
2022-12-31T23:31:02.516Z,99.90
2022-12-31T23:33:33.436Z,99.90
2022-12-31T23:36:09.048Z,99.90
2022-12-31T23:38:42.494Z,99.90
2022-12-31T23:41:18.815Z,99.90
2022-12-31T23:43:50.050Z,99.90
2022-12-31T23:46:21.931Z,99.90
2022-12-31T23:48:54.011Z,99.90
2022-12-31T23:51:27.394Z,99.90
2022-12-31T23:54:01.981Z,99.90
2022-12-31T23:56:34.348Z,99.90
2022-12-31T23:59:05.536Z,99.90
